KCAR/CAR METAR and TAF weather

Enter ICAO airport designator
Station Type Date Time Source
KCAR METAR 2018/12/12 05:54 UTC NOAA

KCAR 120554Z AUTO 36004KT 10SM FEW065 OVC090 M17/M19 A2991 RMK AO2 SLP148 I1000 I6000 T11671194 11144 21183 56012


Station Type Date Time Source
KCAR Decoded METAR 2018/12/12 05:54 UTC NOAA

CARIBOU MUNICIPAL AIRPORT, ME, United States (KCAR) 46-52N 68-01W 191M
Dec 12, 2018 - 12:54 AM EST / 2018.12.12 0554 UTC
Wind: from the N (360 degrees) at 5 MPH (4 KT):0
Visibility: 10 mile(s):0
Sky conditions: overcast
Temperature: 1.9 F (-16.7 C)
Windchill: -7 F (-22 C):2
Dew Point: -2.9 F (-19.4 C)
Relative Humidity: 79%
Pressure (altimeter): 29.91 in. Hg (1012 hPa)
Pressure tendency: 0.04 inches (1.2 hPa) lower than three hours ago
ob: KCAR 120554Z AUTO 36004KT 10SM FEW065 OVC090 M17/M19 A2991 RMK AO2 SLP148 I1000 I6000 T11671194 11144 21183 56012
cycle: 6

Station Type Date Time Source
KCAR TAF 2018/12/12 06:27 UTC NOAA

TAF KCAR 120525Z 1206/1306 35005KT P6SM BKN050
FM121000 35008KT P6SM BKN015
FM121600 34012KT P6SM BKN015
FM130400 33011KT P6SM FEW250


Example: see airport list